sensor_id;sensor_type;location;lat;lon;timestamp;pressure;altitude;pressure_sealevel;temperature;humidity
40948;BME280;49382;-25.924;28.194;2023-02-23T00:00:32;85517.62;;;18.78;48.08
40948;BME280;49382;-25.924;28.194;2023-02-23T00:02:59;85514.65;;;18.06;48.98
40948;BME280;49382;-25.924;28.194;2023-02-23T00:05:24;85512.29;;;18.86;47.51
40948;BME280;49382;-25.924;28.194;2023-02-23T00:07:49;85510.15;;;18.02;49.55
40948;BME280;49382;-25.924;28.194;2023-02-23T00:10:15;85510.26;;;18.72;48.00
40948;BME280;49382;-25.924;28.194;2023-02-23T00:12:42;85509.49;;;17.87;49.04
40948;BME280;49382;-25.924;28.194;2023-02-23T00:15:07;85510.42;;;18.21;49.51
40948;BME280;49382;-25.924;28.194;2023-02-23T00:17:32;85510.65;;;18.53;48.39
40948;BME280;49382;-25.924;28.194;2023-02-23T00:19:57;85515.76;;;18.21;49.62
40948;BME280;49382;-25.924;28.194;2023-02-23T00:22:24;85513.51;;;17.70;50.13
40948;BME280;49382;-25.924;28.194;2023-02-23T00:24:48;85514.14;;;17.63;50.44
40948;BME280;49382;-25.924;28.194;2023-02-23T00:27:14;85512.70;;;17.13;51.42
40948;BME280;49382;-25.924;28.194;2023-02-23T00:29:40;85511.24;;;17.38;51.14
40948;BME280;49382;-25.924;28.194;2023-02-23T00:32:06;85508.62;;;16.78;52.76
40948;BME280;49382;-25.924;28.194;2023-02-23T00:34:32;85508.38;;;17.02;51.61
40948;BME280;49382;-25.924;28.194;2023-02-23T00:36:57;85511.84;;;17.59;50.36
40948;BME280;49382;-25.924;28.194;2023-02-23T00:39:23;85506.25;;;15.33;55.04
40948;BME280;49382;-25.924;28.194;2023-02-23T00:41:49;85506.29;;;16.48;53.12
40948;BME280;49382;-25.924;28.194;2023-02-23T00:44:15;85505.07;;;18.03;50.77
40948;BME280;49382;-25.924;28.194;2023-02-23T00:46:42;85504.06;;;16.54;53.41
40948;BME280;49382;-25.924;28.194;2023-02-23T00:49:07;85505.70;;;18.70;47.46
40948;BME280;49382;-25.924;28.194;2023-02-23T00:51:32;85499.67;;;18.35;48.69
40948;BME280;49382;-25.924;28.194;2023-02-23T00:53:59;85497.23;;;16.33;53.15
40948;BME280;49382;-25.924;28.194;2023-02-23T00:56:24;85496.97;;;16.54;54.15
40948;BME280;49382;-25.924;28.194;2023-02-23T00:58:49;85500.75;;;16.77;52.44
40948;BME280;49382;-25.924;28.194;2023-02-23T01:01:14;85502.80;;;17.17;51.80
40948;BME280;49382;-25.924;28.194;2023-02-23T01:03:42;85499.00;;;16.94;52.64
40948;BME280;49382;-25.924;28.194;2023-02-23T01:06:07;85503.95;;;18.04;50.22
40948;BME280;49382;-25.924;28.194;2023-02-23T01:08:32;85503.34;;;17.93;50.12
40948;BME280;49382;-25.924;28.194;2023-02-23T01:10:57;85501.33;;;18.58;47.73
40948;BME280;49382;-25.924;28.194;2023-02-23T01:13:24;85498.76;;;17.86;50.04
40948;BME280;49382;-25.924;28.194;2023-02-23T01:15:49;85493.44;;;19.34;46.67
40948;BME280;49382;-25.924;28.194;2023-02-23T01:18:15;85492.24;;;17.36;49.55
40948;BME280;49382;-25.924;28.194;2023-02-23T01:20:40;85491.89;;;17.38;50.11
40948;BME280;49382;-25.924;28.194;2023-02-23T01:23:07;85491.34;;;15.74;54.27
40948;BME280;49382;-25.924;28.194;2023-02-23T01:25:33;85485.82;;;16.77;52.25
40948;BME280;49382;-25.924;28.194;2023-02-23T01:27:58;85485.92;;;19.14;47.20
40948;BME280;49382;-25.924;28.194;2023-02-23T01:30:23;85486.54;;;16.49;52.96
40948;BME280;49382;-25.924;28.194;2023-02-23T01:32:49;85486.72;;;16.14;53.71
40948;BME280;49382;-25.924;28.194;2023-02-23T01:35:15;85487.67;;;15.11;56.40
40948;BME280;49382;-25.924;28.194;2023-02-23T01:37:42;85486.90;;;15.67;56.12
40948;BME280;49382;-25.924;28.194;2023-02-23T01:40:11;85482.62;;;15.92;55.60
40948;BME280;49382;-25.924;28.194;2023-02-23T01:42:36;85481.30;;;15.94;55.40
40948;BME280;49382;-25.924;28.194;2023-02-23T01:47:23;85475.30;;;16.75;54.21
40948;BME280;49382;-25.924;28.194;2023-02-23T01:49:49;85473.24;;;16.23;55.25
40948;BME280;49382;-25.924;28.194;2023-02-23T01:52:15;85471.11;;;16.11;55.92
40948;BME280;49382;-25.924;28.194;2023-02-23T01:54:43;85473.07;;;17.81;51.17
40948;BME280;49382;-25.924;28.194;2023-02-23T01:57:08;85466.84;;;16.49;54.13
40948;BME280;49382;-25.924;28.194;2023-02-23T01:59:35;85473.42;;;17.20;52.41
40948;BME280;49382;-25.924;28.194;2023-02-23T02:01:57;85473.84;;;17.36;51.69
40948;BME280;49382;-25.924;28.194;2023-02-23T02:04:24;85473.04;;;16.64;54.11
40948;BME280;49382;-25.924;28.194;2023-02-23T02:06:49;85470.58;;;15.68;56.80
40948;BME280;49382;-25.924;28.194;2023-02-23T02:09:16;85469.88;;;15.52;57.50
40948;BME280;49382;-25.924;28.194;2023-02-23T02:11:40;85470.56;;;15.98;56.62
40948;BME280;49382;-25.924;28.194;2023-02-23T02:14:09;85468.21;;;15.42;57.95
40948;BME280;49382;-25.924;28.194;2023-02-23T02:16:44;85471.23;;;15.60;57.42
40948;BME280;49382;-25.924;28.194;2023-02-23T02:21:34;85474.98;;;16.19;56.56
40948;BME280;49382;-25.924;28.194;2023-02-23T02:23:56;85473.75;;;16.10;56.19
40948;BME280;49382;-25.924;28.194;2023-02-23T02:26:21;85474.83;;;16.56;55.69
40948;BME280;49382;-25.924;28.194;2023-02-23T02:28:49;85473.27;;;15.15;57.06
40948;BME280;49382;-25.924;28.194;2023-02-23T02:36:05;85475.97;;;15.17;58.96
40948;BME280;49382;-25.924;28.194;2023-02-23T02:38:30;85477.87;;;16.44;55.49
40948;BME280;49382;-25.924;28.194;2023-02-23T02:40:53;85473.35;;;15.54;56.83
40948;BME280;49382;-25.924;28.194;2023-02-23T02:43:18;85476.82;;;14.94;58.67
40948;BME280;49382;-25.924;28.194;2023-02-23T02:45:47;85478.91;;;15.87;56.79
40948;BME280;49382;-25.924;28.194;2023-02-23T02:48:13;85480.52;;;17.79;52.75
40948;BME280;49382;-25.924;28.194;2023-02-23T02:50:37;85481.25;;;16.56;54.04
40948;BME280;49382;-25.924;28.194;2023-02-23T02:52:59;85486.97;;;14.93;58.65
40948;BME280;49382;-25.924;28.194;2023-02-23T02:55:24;85484.50;;;15.41;57.53
40948;BME280;49382;-25.924;28.194;2023-02-23T02:57:48;85481.43;;;15.27;57.83
40948;BME280;49382;-25.924;28.194;2023-02-23T03:00:18;85483.10;;;17.10;53.53
40948;BME280;49382;-25.924;28.194;2023-02-23T03:02:41;85483.15;;;15.41;55.09
40948;BME280;49382;-25.924;28.194;2023-02-23T03:05:11;85479.62;;;15.16;56.66
40948;BME280;49382;-25.924;28.194;2023-02-23T03:07:35;85479.55;;;14.66;58.46
40948;BME280;49382;-25.924;28.194;2023-02-23T03:10:00;85482.58;;;16.95;53.03
40948;BME280;49382;-25.924;28.194;2023-02-23T03:12:31;85486.57;;;14.64;58.77
40948;BME280;49382;-25.924;28.194;2023-02-23T03:14:54;85491.35;;;16.16;55.55
40948;BME280;49382;-25.924;28.194;2023-02-23T03:17:19;85491.97;;;16.39;55.43
40948;BME280;49382;-25.924;28.194;2023-02-23T03:19:39;85492.52;;;18.06;50.34
40948;BME280;49382;-25.924;28.194;2023-02-23T03:22:09;85487.98;;;15.49;54.87
40948;BME280;49382;-25.924;28.194;2023-02-23T03:24:34;85486.32;;;15.04;57.52
40948;BME280;49382;-25.924;28.194;2023-02-23T03:26:57;85486.53;;;14.92;59.06
40948;BME280;49382;-25.924;28.194;2023-02-23T03:29:27;85487.43;;;15.59;56.88
40948;BME280;49382;-25.924;28.194;2023-02-23T03:31:48;85488.37;;;16.90;53.73
40948;BME280;49382;-25.924;28.194;2023-02-23T03:34:15;85488.05;;;15.40;57.20
40948;BME280;49382;-25.924;28.194;2023-02-23T03:36:41;85492.52;;;15.57;56.29
40948;BME280;49382;-25.924;28.194;2023-02-23T03:39:09;85495.75;;;15.50;57.00
40948;BME280;49382;-25.924;28.194;2023-02-23T03:41:28;85503.59;;;15.77;55.93
40948;BME280;49382;-25.924;28.194;2023-02-23T03:43:55;85505.48;;;15.44;57.47
40948;BME280;49382;-25.924;28.194;2023-02-23T03:46:18;85506.80;;;15.18;57.89
40948;BME280;49382;-25.924;28.194;2023-02-23T03:48:43;85512.87;;;16.87;54.07
40948;BME280;49382;-25.924;28.194;2023-02-23T03:51:08;85519.34;;;15.83;55.79
40948;BME280;49382;-25.924;28.194;2023-02-23T03:53:38;85523.63;;;15.45;56.95
40948;BME280;49382;-25.924;28.194;2023-02-23T03:55:58;85527.19;;;16.60;54.49
40948;BME280;49382;-25.924;28.194;2023-02-23T03:58:27;85523.88;;;15.24;57.25
40948;BME280;49382;-25.924;28.194;2023-02-23T04:00:49;85524.43;;;15.79;56.44
40948;BME280;49382;-25.924;28.194;2023-02-23T04:03:14;85528.28;;;16.04;55.31
40948;BME280;49382;-25.924;28.194;2023-02-23T04:05:41;85528.92;;;15.68;55.32
40948;BME280;49382;-25.924;28.194;2023-02-23T04:08:06;85528.83;;;16.41;54.57
40948;BME280;49382;-25.924;28.194;2023-02-23T04:10:30;85526.58;;;15.36;56.83
40948;BME280;49382;-25.924;28.194;2023-02-23T04:12:57;85527.62;;;15.17;57.42
40948;BME280;49382;-25.924;28.194;2023-02-23T04:15:25;85530.32;;;15.72;55.91
40948;BME280;49382;-25.924;28.194;2023-02-23T04:17:45;85534.44;;;16.03;54.92
40948;BME280;49382;-25.924;28.194;2023-02-23T04:20:11;85538.47;;;16.13;54.88
40948;BME280;49382;-25.924;28.194;2023-02-23T04:22:35;85538.93;;;15.96;54.53
40948;BME280;49382;-25.924;28.194;2023-02-23T04:25:00;85540.30;;;16.23;54.47
40948;BME280;49382;-25.924;28.194;2023-02-23T04:27:25;85539.27;;;15.82;54.95
40948;BME280;49382;-25.924;28.194;2023-02-23T04:29:50;85540.95;;;15.42;56.23
40948;BME280;49382;-25.924;28.194;2023-02-23T04:32:17;85538.32;;;15.53;55.96
40948;BME280;49382;-25.924;28.194;2023-02-23T04:34:40;85542.11;;;15.81;55.42
40948;BME280;49382;-25.924;28.194;2023-02-23T04:37:06;85547.46;;;17.07;53.39
40948;BME280;49382;-25.924;28.194;2023-02-23T04:39:31;85549.93;;;16.10;54.07
40948;BME280;49382;-25.924;28.194;2023-02-23T04:41:56;85548.24;;;15.99;55.20
40948;BME280;49382;-25.924;28.194;2023-02-23T04:44:22;85552.60;;;16.21;55.63
40948;BME280;49382;-25.924;28.194;2023-02-23T04:46:47;85554.40;;;16.09;55.08
40948;BME280;49382;-25.924;28.194;2023-02-23T04:49:12;85555.02;;;15.80;57.25
40948;BME280;49382;-25.924;28.194;2023-02-23T04:51:37;85557.98;;;15.64;56.94
40948;BME280;49382;-25.924;28.194;2023-02-23T04:54:03;85560.41;;;15.80;57.04
40948;BME280;49382;-25.924;28.194;2023-02-23T04:56:29;85560.91;;;16.24;55.51
40948;BME280;49382;-25.924;28.194;2023-02-23T04:58:54;85559.87;;;15.79;56.08
40948;BME280;49382;-25.924;28.194;2023-02-23T05:01:20;85563.77;;;15.87;56.22
40948;BME280;49382;-25.924;28.194;2023-02-23T05:03:45;85563.47;;;16.22;56.02
40948;BME280;49382;-25.924;28.194;2023-02-23T05:06:11;85566.48;;;15.35;57.45
40948;BME280;49382;-25.924;28.194;2023-02-23T05:08:37;85566.17;;;16.40;54.71
40948;BME280;49382;-25.924;28.194;2023-02-23T05:11:03;85571.96;;;17.77;50.87
40948;BME280;49382;-25.924;28.194;2023-02-23T05:13:28;85572.96;;;18.38;49.06
40948;BME280;49382;-25.924;28.194;2023-02-23T05:15:56;85572.48;;;18.91;47.89
40948;BME280;49382;-25.924;28.194;2023-02-23T05:18:20;85575.43;;;18.57;48.18
40948;BME280;49382;-25.924;28.194;2023-02-23T05:20:45;85573.50;;;17.28;50.84
40948;BME280;49382;-25.924;28.194;2023-02-23T05:23:10;85574.29;;;16.83;52.74
40948;BME280;49382;-25.924;28.194;2023-02-23T05:25:37;85571.11;;;20.20;45.61
40948;BME280;49382;-25.924;28.194;2023-02-23T05:28:02;85574.57;;;16.70;53.63
40948;BME280;49382;-25.924;28.194;2023-02-23T05:30:27;85578.18;;;16.98;53.17
40948;BME280;49382;-25.924;28.194;2023-02-23T05:32:53;85581.31;;;17.43;51.07
40948;BME280;49382;-25.924;28.194;2023-02-23T05:35:19;85583.11;;;17.20;53.38
40948;BME280;49382;-25.924;28.194;2023-02-23T05:37:45;85588.24;;;16.65;53.87
40948;BME280;49382;-25.924;28.194;2023-02-23T05:40:11;85590.37;;;16.67;55.42
40948;BME280;49382;-25.924;28.194;2023-02-23T05:42:35;85587.77;;;16.34;56.16
40948;BME280;49382;-25.924;28.194;2023-02-23T05:45:01;85588.64;;;16.78;55.75
40948;BME280;49382;-25.924;28.194;2023-02-23T05:47:27;85587.69;;;16.48;56.97
40948;BME280;49382;-25.924;28.194;2023-02-23T05:49:53;85590.10;;;17.53;53.66
40948;BME280;49382;-25.924;28.194;2023-02-23T05:52:18;85588.18;;;17.23;56.24
40948;BME280;49382;-25.924;28.194;2023-02-23T05:54:43;85590.57;;;17.64;54.30
40948;BME280;49382;-25.924;28.194;2023-02-23T05:57:09;85591.57;;;17.41;54.42
40948;BME280;49382;-25.924;28.194;2023-02-23T05:59:34;85599.88;;;18.12;52.89
40948;BME280;49382;-25.924;28.194;2023-02-23T06:02:00;85595.94;;;17.62;53.96
40948;BME280;49382;-25.924;28.194;2023-02-23T06:04:26;85596.82;;;17.47;54.99
40948;BME280;49382;-25.924;28.194;2023-02-23T06:06:51;85600.96;;;17.22;55.27
40948;BME280;49382;-25.924;28.194;2023-02-23T06:09:17;85600.21;;;17.15;55.43
40948;BME280;49382;-25.924;28.194;2023-02-23T06:11:43;85604.55;;;18.39;52.81
40948;BME280;49382;-25.924;28.194;2023-02-23T06:14:08;85601.30;;;17.40;55.41
40948;BME280;49382;-25.924;28.194;2023-02-23T06:16:34;85607.07;;;19.66;49.36
40948;BME280;49382;-25.924;28.194;2023-02-23T06:18:59;85606.84;;;17.82;53.95
40948;BME280;49382;-25.924;28.194;2023-02-23T06:21:25;85606.27;;;17.13;55.21
40948;BME280;49382;-25.924;28.194;2023-02-23T06:23:51;85605.23;;;17.16;56.82
40948;BME280;49382;-25.924;28.194;2023-02-23T06:26:17;85613.47;;;18.24;54.55
40948;BME280;49382;-25.924;28.194;2023-02-23T06:28:42;85611.79;;;17.19;57.53
40948;BME280;49382;-25.924;28.194;2023-02-23T06:31:08;85611.77;;;17.74;56.48
40948;BME280;49382;-25.924;28.194;2023-02-23T06:33:33;85611.99;;;17.58;57.12
40948;BME280;49382;-25.924;28.194;2023-02-23T06:35:58;85612.02;;;19.48;50.69
40948;BME280;49382;-25.924;28.194;2023-02-23T06:38:23;85611.69;;;18.53;53.88
40948;BME280;49382;-25.924;28.194;2023-02-23T06:40:48;85605.74;;;17.42;56.15
40948;BME280;49382;-25.924;28.194;2023-02-23T06:43:13;85606.90;;;17.47;55.85
40948;BME280;49382;-25.924;28.194;2023-02-23T06:45:39;85612.88;;;18.89;55.05
40948;BME280;49382;-25.924;28.194;2023-02-23T06:48:05;85609.14;;;18.76;53.93
40948;BME280;49382;-25.924;28.194;2023-02-23T06:50:30;85605.77;;;18.86;53.67
40948;BME280;49382;-25.924;28.194;2023-02-23T06:52:55;85604.68;;;18.74;53.86
40948;BME280;49382;-25.924;28.194;2023-02-23T06:55:21;85602.63;;;18.23;54.14
40948;BME280;49382;-25.924;28.194;2023-02-23T06:57:49;85602.32;;;18.54;53.67
40948;BME280;49382;-25.924;28.194;2023-02-23T07:00:13;85599.21;;;18.46;54.28
40948;BME280;49382;-25.924;28.194;2023-02-23T07:02:38;85601.86;;;18.38;54.96
40948;BME280;49382;-25.924;28.194;2023-02-23T07:05:04;85602.93;;;19.48;52.81
40948;BME280;49382;-25.924;28.194;2023-02-23T07:07:30;85603.36;;;18.21;57.75
40948;BME280;49382;-25.924;28.194;2023-02-23T07:09:55;85601.50;;;17.63;55.79
40948;BME280;49382;-25.924;28.194;2023-02-23T07:12:20;85602.70;;;17.91;55.40
40948;BME280;49382;-25.924;28.194;2023-02-23T07:14:46;85600.77;;;21.22;48.18
40948;BME280;49382;-25.924;28.194;2023-02-23T07:17:12;85600.60;;;20.42;49.88
40948;BME280;49382;-25.924;28.194;2023-02-23T07:19:37;85602.14;;;21.03;48.55
40948;BME280;49382;-25.924;28.194;2023-02-23T07:22:03;85600.87;;;20.44;47.70
40948;BME280;49382;-25.924;28.194;2023-02-23T07:24:28;85599.69;;;19.74;50.86
40948;BME280;49382;-25.924;28.194;2023-02-23T07:26:54;85597.60;;;19.04;53.07
40948;BME280;49382;-25.924;28.194;2023-02-23T07:29:20;85599.94;;;19.72;50.71
40948;BME280;49382;-25.924;28.194;2023-02-23T07:31:46;85598.02;;;21.79;47.19
40948;BME280;49382;-25.924;28.194;2023-02-23T07:34:11;85601.56;;;19.53;48.94
40948;BME280;49382;-25.924;28.194;2023-02-23T07:36:36;85601.65;;;20.73;47.36
40948;BME280;49382;-25.924;28.194;2023-02-23T07:39:02;85601.04;;;21.39;47.40
40948;BME280;49382;-25.924;28.194;2023-02-23T07:41:27;85602.69;;;19.75;50.00
40948;BME280;49382;-25.924;28.194;2023-02-23T07:43:53;85601.86;;;20.85;47.57
40948;BME280;49382;-25.924;28.194;2023-02-23T07:46:19;85603.40;;;19.47;47.70
40948;BME280;49382;-25.924;28.194;2023-02-23T07:48:44;85605.71;;;18.94;50.08
40948;BME280;49382;-25.924;28.194;2023-02-23T07:51:11;85600.17;;;20.32;48.02
40948;BME280;49382;-25.924;28.194;2023-02-23T07:53:36;85605.68;;;22.40;45.68
40948;BME280;49382;-25.924;28.194;2023-02-23T07:56:01;85601.76;;;21.58;44.47
40948;BME280;49382;-25.924;28.194;2023-02-23T07:58:27;85602.15;;;22.80;43.48
40948;BME280;49382;-25.924;28.194;2023-02-23T08:00:52;85602.58;;;22.80;42.86
40948;BME280;49382;-25.924;28.194;2023-02-23T08:03:17;85600.50;;;21.84;46.32
40948;BME280;49382;-25.924;28.194;2023-02-23T08:05:43;85598.98;;;21.60;45.15
40948;BME280;49382;-25.924;28.194;2023-02-23T08:08:08;85594.46;;;23.24;42.82
40948;BME280;49382;-25.924;28.194;2023-02-23T08:10:34;85593.56;;;25.25;39.47
40948;BME280;49382;-25.924;28.194;2023-02-23T08:13:00;85589.72;;;25.17;40.37
40948;BME280;49382;-25.924;28.194;2023-02-23T08:15:25;85581.84;;;24.16;41.33
40948;BME280;49382;-25.924;28.194;2023-02-23T08:17:51;85577.93;;;25.81;38.32
40948;BME280;49382;-25.924;28.194;2023-02-23T08:20:16;85568.45;;;21.93;43.78
40948;BME280;49382;-25.924;28.194;2023-02-23T08:22:42;85567.66;;;21.94;45.07
40948;BME280;49382;-25.924;28.194;2023-02-23T08:25:08;85568.80;;;22.40;44.12
40948;BME280;49382;-25.924;28.194;2023-02-23T08:27:34;85568.32;;;24.82;40.64
40948;BME280;49382;-25.924;28.194;2023-02-23T08:29:59;85560.16;;;22.21;43.30
40948;BME280;49382;-25.924;28.194;2023-02-23T08:32:24;85554.33;;;23.01;42.16
40948;BME280;49382;-25.924;28.194;2023-02-23T08:34:50;85554.47;;;23.61;41.18
40948;BME280;49382;-25.924;28.194;2023-02-23T08:37:16;85554.07;;;23.45;43.44
40948;BME280;49382;-25.924;28.194;2023-02-23T08:39:41;85542.34;;;22.16;43.39
40948;BME280;49382;-25.924;28.194;2023-02-23T08:42:07;85543.80;;;23.26;41.82
40948;BME280;49382;-25.924;28.194;2023-02-23T08:44:32;85541.31;;;23.30;41.12
40948;BME280;49382;-25.924;28.194;2023-02-23T08:46:58;85536.99;;;26.03;37.62
40948;BME280;49382;-25.924;28.194;2023-02-23T08:49:24;85530.25;;;21.42;43.97
40948;BME280;49382;-25.924;28.194;2023-02-23T08:51:49;85535.48;;;25.36;37.76
40948;BME280;49382;-25.924;28.194;2023-02-23T08:54:14;85525.27;;;22.71;40.36
40948;BME280;49382;-25.924;28.194;2023-02-23T08:56:39;85525.51;;;26.00;39.70
40948;BME280;49382;-25.924;28.194;2023-02-23T08:59:05;85522.03;;;24.28;39.10
40948;BME280;49382;-25.924;28.194;2023-02-23T09:01:30;85516.37;;;22.70;42.76
40948;BME280;49382;-25.924;28.194;2023-02-23T09:03:56;85514.45;;;22.54;43.21
40948;BME280;49382;-25.924;28.194;2023-02-23T09:06:24;85512.47;;;23.63;39.66
40948;BME280;49382;-25.924;28.194;2023-02-23T09:08:47;85512.15;;;24.21;39.35
40948;BME280;49382;-25.924;28.194;2023-02-23T09:11:12;85504.94;;;22.72;41.05
40948;BME280;49382;-25.924;28.194;2023-02-23T09:13:37;85505.67;;;26.02;37.22
40948;BME280;49382;-25.924;28.194;2023-02-23T09:16:03;85501.80;;;27.09;34.21
40948;BME280;49382;-25.924;28.194;2023-02-23T09:18:29;85501.08;;;27.26;34.16
40948;BME280;49382;-25.924;28.194;2023-02-23T09:20:54;85495.60;;;24.77;35.90
40948;BME280;49382;-25.924;28.194;2023-02-23T09:23:20;85495.24;;;26.61;35.47
40948;BME280;49382;-25.924;28.194;2023-02-23T09:25:46;85489.79;;;25.64;37.88
40948;BME280;49382;-25.924;28.194;2023-02-23T09:28:12;85485.67;;;24.64;39.53
40948;BME280;49382;-25.924;28.194;2023-02-23T09:30:37;85484.09;;;26.82;35.76
40948;BME280;49382;-25.924;28.194;2023-02-23T09:33:03;85481.39;;;24.91;39.40
40948;BME280;49382;-25.924;28.194;2023-02-23T09:35:28;85476.94;;;25.82;36.44
40948;BME280;49382;-25.924;28.194;2023-02-23T09:37:55;85473.76;;;25.91;37.57
40948;BME280;49382;-25.924;28.194;2023-02-23T09:40:22;85470.37;;;27.42;35.04
40948;BME280;49382;-25.924;28.194;2023-02-23T09:42:53;85465.40;;;27.26;34.71
40948;BME280;49382;-25.924;28.194;2023-02-23T09:45:19;85469.74;;;26.98;35.35
40948;BME280;49382;-25.924;28.194;2023-02-23T09:47:44;85464.62;;;25.59;33.25
40948;BME280;49382;-25.924;28.194;2023-02-23T09:50:11;85456.11;;;24.48;33.59
40948;BME280;49382;-25.924;28.194;2023-02-23T09:52:32;85456.74;;;26.54;32.51
40948;BME280;49382;-25.924;28.194;2023-02-23T09:54:53;85465.90;;;27.22;32.62
40948;BME280;49382;-25.924;28.194;2023-02-23T09:57:21;85458.21;;;25.43;31.22
40948;BME280;49382;-25.924;28.194;2023-02-23T09:59:44;85454.80;;;26.33;31.55
40948;BME280;49382;-25.924;28.194;2023-02-23T10:02:21;85461.90;;;27.43;31.77
40948;BME280;49382;-25.924;28.194;2023-02-23T10:04:38;85453.86;;;27.85;29.24
40948;BME280;49382;-25.924;28.194;2023-02-23T10:07:05;85445.61;;;28.24;29.22
40948;BME280;49382;-25.924;28.194;2023-02-23T10:09:40;85447.33;;;27.28;31.83
40948;BME280;49382;-25.924;28.194;2023-02-23T10:11:58;85437.85;;;25.23;31.54
40948;BME280;49382;-25.924;28.194;2023-02-23T10:14:27;85440.28;;;25.33;32.21
40948;BME280;49382;-25.924;28.194;2023-02-23T10:16:52;85435.58;;;27.50;30.34
40948;BME280;49382;-25.924;28.194;2023-02-23T10:19:16;85439.34;;;27.06;30.84
40948;BME280;49382;-25.924;28.194;2023-02-23T10:21:37;85438.13;;;26.84;30.64
40948;BME280;49382;-25.924;28.194;2023-02-23T10:24:02;85432.22;;;25.81;32.12
40948;BME280;49382;-25.924;28.194;2023-02-23T10:26:27;85432.76;;;26.50;32.46
40948;BME280;49382;-25.924;28.194;2023-02-23T10:28:51;85424.16;;;25.29;33.73
40948;BME280;49382;-25.924;28.194;2023-02-23T10:31:27;85422.54;;;25.05;34.57
40948;BME280;49382;-25.924;28.194;2023-02-23T10:33:42;85419.17;;;24.13;33.31
40948;BME280;49382;-25.924;28.194;2023-02-23T10:36:12;85415.22;;;24.99;32.40
40948;BME280;49382;-25.924;28.194;2023-02-23T10:38:33;85410.94;;;24.42;34.81
40948;BME280;49382;-25.924;28.194;2023-02-23T10:40:58;85412.15;;;26.51;31.05
40948;BME280;49382;-25.924;28.194;2023-02-23T10:43:24;85400.36;;;23.89;33.22
40948;BME280;49382;-25.924;28.194;2023-02-23T10:45:51;85395.06;;;25.31;33.39
40948;BME280;49382;-25.924;28.194;2023-02-23T10:48:18;85393.92;;;25.35;33.18
40948;BME280;49382;-25.924;28.194;2023-02-23T10:50:42;85395.41;;;26.58;31.43
40948;BME280;49382;-25.924;28.194;2023-02-23T10:53:13;85394.70;;;27.48;30.26
40948;BME280;49382;-25.924;28.194;2023-02-23T10:55:32;85387.83;;;27.90;29.50
40948;BME280;49382;-25.924;28.194;2023-02-23T10:58:05;85386.69;;;26.90;31.08
40948;BME280;49382;-25.924;28.194;2023-02-23T11:00:27;85379.39;;;27.42;29.06
40948;BME280;49382;-25.924;28.194;2023-02-23T11:02:49;85384.97;;;27.68;29.98
40948;BME280;49382;-25.924;28.194;2023-02-23T11:07:40;85385.23;;;26.55;30.03
40948;BME280;49382;-25.924;28.194;2023-02-23T11:12:36;85379.96;;;27.70;28.18
40948;BME280;49382;-25.924;28.194;2023-02-23T11:14:57;85378.60;;;25.60;30.48
40948;BME280;49382;-25.924;28.194;2023-02-23T11:17:27;85379.27;;;27.44;28.47
40948;BME280;49382;-25.924;28.194;2023-02-23T11:19:47;85376.22;;;25.95;29.90
40948;BME280;49382;-25.924;28.194;2023-02-23T11:22:19;85370.18;;;26.41;30.31
40948;BME280;49382;-25.924;28.194;2023-02-23T11:24:40;85364.96;;;26.01;30.02
40948;BME280;49382;-25.924;28.194;2023-02-23T11:27:06;85371.46;;;26.73;29.98
40948;BME280;49382;-25.924;28.194;2023-02-23T11:29:32;85365.19;;;26.29;30.83
40948;BME280;49382;-25.924;28.194;2023-02-23T11:31:58;85372.72;;;27.74;30.47
40948;BME280;49382;-25.924;28.194;2023-02-23T11:34:29;85368.64;;;26.35;30.20
40948;BME280;49382;-25.924;28.194;2023-02-23T11:39:19;85365.90;;;26.38;30.44
40948;BME280;49382;-25.924;28.194;2023-02-23T11:41:39;85357.83;;;26.07;31.28
40948;BME280;49382;-25.924;28.194;2023-02-23T11:44:04;85358.23;;;26.56;31.18
40948;BME280;49382;-25.924;28.194;2023-02-23T11:46:34;85350.00;;;26.93;30.13
40948;BME280;49382;-25.924;28.194;2023-02-23T11:49:00;85341.95;;;25.23;31.67
40948;BME280;49382;-25.924;28.194;2023-02-23T11:51:25;85347.21;;;26.20;31.64
40948;BME280;49382;-25.924;28.194;2023-02-23T11:53:47;85346.77;;;25.52;32.53
40948;BME280;49382;-25.924;28.194;2023-02-23T11:56:18;85344.73;;;26.64;31.52
40948;BME280;49382;-25.924;28.194;2023-02-23T11:58:42;85341.60;;;25.71;31.44
40948;BME280;49382;-25.924;28.194;2023-02-23T12:01:07;85340.40;;;27.36;29.69
40948;BME280;49382;-25.924;28.194;2023-02-23T12:03:33;85341.98;;;28.02;29.15
40948;BME280;49382;-25.924;28.194;2023-02-23T12:05:57;85336.93;;;28.20;28.48
40948;BME280;49382;-25.924;28.194;2023-02-23T12:08:32;85327.96;;;27.58;28.62
40948;BME280;49382;-25.924;28.194;2023-02-23T12:10:50;85332.94;;;28.15;29.77
40948;BME280;49382;-25.924;28.194;2023-02-23T12:13:26;85327.45;;;28.32;29.40
40948;BME280;49382;-25.924;28.194;2023-02-23T12:15:44;85325.96;;;27.42;31.21
40948;BME280;49382;-25.924;28.194;2023-02-23T12:18:09;85321.70;;;26.62;30.93
40948;BME280;49382;-25.924;28.194;2023-02-23T12:20:33;85319.68;;;25.23;30.90
40948;BME280;49382;-25.924;28.194;2023-02-23T12:22:58;85319.99;;;26.80;27.76
40948;BME280;49382;-25.924;28.194;2023-02-23T12:25:25;85311.29;;;28.03;26.97
40948;BME280;49382;-25.924;28.194;2023-02-23T12:27:52;85311.46;;;26.74;27.16
40948;BME280;49382;-25.924;28.194;2023-02-23T12:30:15;85309.74;;;27.61;26.67
40948;BME280;49382;-25.924;28.194;2023-02-23T12:32:45;85306.67;;;25.72;28.09
40948;BME280;49382;-25.924;28.194;2023-02-23T12:35:11;85310.90;;;27.19;28.14
40948;BME280;49382;-25.924;28.194;2023-02-23T12:37:36;85306.39;;;27.49;27.20
40948;BME280;49382;-25.924;28.194;2023-02-23T12:40:01;85300.59;;;27.82;26.23
40948;BME280;49382;-25.924;28.194;2023-02-23T12:42:24;85307.39;;;28.19;26.11
40948;BME280;49382;-25.924;28.194;2023-02-23T12:44:49;85297.78;;;28.23;25.36
40948;BME280;49382;-25.924;28.194;2023-02-23T12:47:20;85298.16;;;28.30;25.07